Time;durP1;ratioP1;P1;durP2;ratioP2;P2;SDS_P1;SDS_P2;PMS_P1;PMS_P2;Temp;Humidity;BMP_temperature;BMP_pressure;BME280_temperature;BME280_humidity;BME280_pressure;Samples;Min_cycle;Max_cycle;Signal;HPM_P1;HPM_P2
2022/07/10 00:02:06;;;;;;;2.17;0.63;;;;;;;17.80;61.16;100773.91;5042018;28;20069;-58
2022/07/10 00:04:34;;;;;;;2.63;0.82;;;;;;;17.80;61.14;100778.31;5043274;28;20067;-58
2022/07/10 00:07:03;;;;;;;2.50;0.75;;;;;;;17.81;61.00;100774.78;5042436;28;20490;-56
2022/07/10 00:09:49;;;;;;;3.38;0.80;;;;;;;17.83;61.07;100773.81;5043310;28;20083;-58
2022/07/10 00:12:25;;;;;;;3.42;0.80;;;;;;;17.83;61.09;100768.56;5043331;28;20060;-58
2022/07/10 00:14:51;;;;;;;3.30;0.70;;;;;;;17.85;60.97;100777.22;5046051;28;20056;-54
2022/07/10 00:17:21;;;;;;;3.95;1.10;;;;;;;17.87;60.88;100775.41;5036186;28;20049;-56
2022/07/10 00:19:51;;;;;;;6.18;0.90;;;;;;;17.88;60.87;100771.00;5047085;28;20052;-57
2022/07/10 00:22:28;;;;;;;4.57;0.80;;;;;;;17.87;60.98;100769.28;5036583;28;20056;-58
2022/07/10 00:24:58;;;;;;;2.95;0.93;;;;;;;17.86;61.04;100762.34;5036353;28;20045;-58
2022/07/10 00:27:34;;;;;;;2.80;0.70;;;;;;;17.84;60.93;100769.41;5036129;28;20151;-58
2022/07/10 00:30:11;;;;;;;3.63;0.73;;;;;;;17.81;60.76;100765.13;5035997;28;20482;-58
2022/07/10 00:32:41;;;;;;;4.68;0.80;;;;;;;17.76;60.81;100761.84;5035924;28;20061;-58
2022/07/10 00:35:09;;;;;;;4.68;0.85;;;;;;;17.72;60.79;100764.63;5035682;28;20154;-56
2022/07/10 00:37:39;;;;;;;2.88;0.80;;;;;;;17.67;61.05;100759.53;5040941;28;20045;-57
2022/07/10 00:40:11;;;;;;;3.22;0.90;;;;;;;17.62;61.13;100753.56;5045900;28;20132;-58
2022/07/10 00:42:52;;;;;;;5.03;0.90;;;;;;;17.58;61.07;100747.59;5044374;28;20053;-58
2022/07/10 00:45:29;;;;;;;2.05;0.77;;;;;;;17.57;61.08;100737.16;5036194;28;20045;-58
2022/07/10 00:47:55;;;;;;;2.75;1.15;;;;;;;17.56;61.04;100733.69;5046611;28;20045;-58
2022/07/10 00:50:22;;;;;;;5.90;0.80;;;;;;;17.54;61.07;100722.41;5045669;28;20045;-58
2022/07/10 00:52:52;;;;;;;3.90;1.25;;;;;;;17.52;60.98;100737.34;5045092;28;20048;-58
2022/07/10 00:55:22;;;;;;;3.38;0.98;;;;;;;17.52;61.28;100734.72;5044653;28;20045;-58
2022/07/10 00:57:55;;;;;;;2.17;0.80;;;;;;;17.50;61.08;100731.28;5044904;28;20134;-58
2022/07/10 01:00:23;;;;;;;3.50;0.73;;;;;;;17.49;61.05;100737.44;5035769;28;20045;-58
2022/07/10 01:02:52;;;;;;;3.10;0.90;;;;;;;17.47;61.22;100728.78;5046131;28;20045;-58
2022/07/10 01:05:18;;;;;;;4.25;0.85;;;;;;;17.46;61.29;100724.47;5046365;28;20081;-58
2022/07/10 01:07:46;;;;;;;6.18;1.10;;;;;;;17.45;61.46;100725.38;5044327;28;20044;-58
2022/07/10 01:10:14;;;;;;;3.30;0.77;;;;;;;17.44;61.45;100723.66;5043741;28;20045;-58
2022/07/10 01:12:48;;;;;;;5.07;1.20;;;;;;;17.41;61.37;100734.25;5044909;28;20060;-57
2022/07/10 01:15:30;;;;;;;4.78;0.95;;;;;;;17.39;61.57;100725.59;5044294;28;20049;-58
2022/07/10 01:17:56;;;;;;;7.57;0.90;;;;;;;17.39;61.69;100728.22;5044331;28;20112;-58
2022/07/10 01:20:34;;;;;;;3.03;1.17;;;;;;;17.43;61.57;100726.34;5040936;28;20045;-58
2022/07/10 01:23:08;;;;;;;3.40;1.00;;;;;;;17.44;61.72;100734.16;5044567;28;20049;-58
2022/07/10 01:25:34;;;;;;;2.05;0.93;;;;;;;17.45;61.67;100724.53;5044113;28;20064;-58
2022/07/10 01:28:10;;;;;;;4.53;0.90;;;;;;;17.47;61.74;100723.56;5044236;28;20045;-57
2022/07/10 01:30:38;;;;;;;5.03;1.10;;;;;;;17.48;61.81;100719.16;5046323;28;20049;-58
2022/07/10 01:33:08;;;;;;;3.00;0.73;;;;;;;17.49;61.74;100716.47;5045036;28;20049;-58
2022/07/10 01:35:34;;;;;;;3.67;0.77;;;;;;;17.48;61.95;100711.31;5043988;28;20355;-58
2022/07/10 01:38:03;;;;;;;2.88;0.95;;;;;;;17.49;61.94;100711.25;5049429;28;20056;-58
2022/07/10 01:40:34;;;;;;;3.10;0.80;;;;;;;17.51;62.06;100712.03;5045695;28;20163;-58
2022/07/10 01:43:09;;;;;;;4.03;1.10;;;;;;;17.48;61.88;100709.53;5042156;28;20060;-58
2022/07/10 01:48:20;;;;;;;2.25;0.68;;;;;;;17.45;62.12;100709.66;5034263;28;20645;-58
2022/07/10 01:50:50;;;;;;;5.50;0.88;;;;;;;17.45;62.48;100707.03;5034449;28;20433;-57
2022/07/10 01:53:19;;;;;;;3.70;0.93;;;;;;;17.43;62.22;100701.00;5035029;28;20045;-56
2022/07/10 01:55:54;;;;;;;5.35;1.08;;;;;;;17.44;62.52;100701.84;5034685;28;20049;-58
2022/07/10 01:58:24;;;;;;;3.67;0.85;;;;;;;17.41;62.56;100700.19;5034758;28;20041;-57
2022/07/10 02:00:56;;;;;;;7.28;1.25;;;;;;;17.41;62.84;100700.19;5034059;28;20147;-54
2022/07/10 02:06:08;;;;;;;2.45;0.90;;;;;;;17.35;62.65;100698.66;5044410;28;20382;-58
2022/07/10 02:08:36;;;;;;;4.93;0.95;;;;;;;17.36;62.83;100699.50;5042798;28;20046;-57
2022/07/10 02:11:13;;;;;;;5.15;0.73;;;;;;;17.34;63.03;100693.47;5042937;28;20045;-56
2022/07/10 02:13:40;;;;;;;5.82;0.80;;;;;;;17.30;63.09;100691.88;5043482;28;20462;-57
2022/07/10 02:16:08;;;;;;;8.13;0.98;;;;;;;17.27;63.34;100685.00;5043015;28;20049;-57
2022/07/10 02:18:38;;;;;;;5.60;0.82;;;;;;;17.25;63.69;100681.56;5044775;28;20077;-57
2022/07/10 02:21:16;;;;;;;3.08;1.08;;;;;;;17.24;63.87;100676.38;5043871;28;20072;-57
2022/07/10 02:23:46;;;;;;;3.30;0.85;;;;;;;17.22;63.64;100665.13;5033395;28;20382;-57
2022/07/10 02:26:16;;;;;;;4.53;1.08;;;;;;;17.17;63.79;100673.13;5033668;28;20057;-58
2022/07/10 02:28:51;;;;;;;3.28;0.77;;;;;;;17.14;63.94;100656.66;5033554;28;20053;-57
2022/07/10 02:31:21;;;;;;;4.15;1.00;;;;;;;17.12;64.11;100668.94;5034353;28;20056;-57
2022/07/10 02:33:52;;;;;;;2.70;0.60;;;;;;;17.09;64.10;100669.91;5033762;28;20052;-58
2022/07/10 02:36:22;;;;;;;3.60;0.73;;;;;;;17.11;64.20;100667.25;5042228;28;20429;-58
2022/07/10 02:38:51;;;;;;;5.05;0.93;;;;;;;17.09;64.22;100659.44;5047714;28;20049;-57
2022/07/10 02:41:28;;;;;;;3.55;0.80;;;;;;;17.11;64.22;100664.63;5044401;28;20076;-58
2022/07/10 02:43:55;;;;;;;3.22;0.75;;;;;;;17.10;63.94;100666.38;5035941;28;20049;-58
2022/07/10 02:46:26;;;;;;;3.22;0.60;;;;;;;17.11;63.88;100672.47;5043373;28;20077;-54
2022/07/10 02:48:56;;;;;;;2.83;0.70;;;;;;;17.10;64.19;100673.38;5042871;28;21337;-58
2022/07/10 02:51:25;;;;;;;3.70;0.85;;;;;;;17.10;64.24;100668.16;5032150;28;20081;-58
2022/07/10 02:53:52;;;;;;;1.65;0.68;;;;;;;17.09;64.28;100664.69;5038814;28;20049;-57
2022/07/10 02:56:32;;;;;;;3.75;0.90;;;;;;;17.10;64.36;100665.53;5044412;28;20051;-58
2022/07/10 02:59:00;;;;;;;2.42;0.70;;;;;;;17.07;65.04;100665.66;5033504;28;20038;-58
2022/07/10 03:01:27;;;;;;;4.93;0.82;;;;;;;17.06;65.13;100666.56;5033448;28;20049;-56
2022/07/10 03:03:54;;;;;;;5.95;0.80;;;;;;;17.04;65.31;100664.00;5037983;28;20045;-57
2022/07/10 03:06:21;;;;;;;2.35;0.82;;;;;;;17.03;65.94;100668.38;5043832;28;20531;-56
2022/07/10 03:08:48;;;;;;;7.57;1.30;;;;;;;16.99;66.41;100664.16;5043635;28;20169;-56
2022/07/10 03:11:18;;;;;;;10.88;1.08;;;;;;;16.97;67.09;100658.13;5041491;28;20630;-58
2022/07/10 03:13:50;;;;;;;3.38;0.93;;;;;;;16.91;67.20;100660.97;5043105;28;20122;-56
2022/07/10 03:16:18;;;;;;;3.00;1.17;;;;;;;16.88;67.17;100661.06;5043777;28;20458;-57
2022/07/10 03:18:48;;;;;;;3.75;1.00;;;;;;;16.84;67.47;100659.47;5042847;28;20038;-54
2022/07/10 03:21:15;;;;;;;3.08;0.88;;;;;;;16.79;67.82;100660.53;5041335;28;20488;-57
2022/07/10 03:23:43;;;;;;;3.28;0.88;;;;;;;16.75;68.09;100662.41;5043629;28;20063;-57
2022/07/10 03:26:13;;;;;;;2.50;0.90;;;;;;;16.72;68.24;100649.44;5043180;28;20667;-57
2022/07/10 03:28:42;;;;;;;5.38;1.10;;;;;;;16.69;68.31;100646.94;5041988;28;20457;-54
2022/07/10 03:31:13;;;;;;;2.35;1.00;;;;;;;16.67;68.66;100643.50;5042361;28;20075;-56
2022/07/10 03:33:41;;;;;;;3.13;0.85;;;;;;;16.63;69.08;100645.31;5041719;28;20045;-56
2022/07/10 03:36:11;;;;;;;3.42;0.70;;;;;;;16.60;69.17;100645.44;5042454;28;20056;-57
2022/07/10 03:38:41;;;;;;;3.50;0.73;;;;;;;16.58;69.25;100643.78;5048592;28;20049;-57
2022/07/10 03:41:08;;;;;;;5.07;1.00;;;;;;;16.59;69.34;100643.72;5042704;28;20053;-56
2022/07/10 03:43:35;;;;;;;4.75;1.10;;;;;;;16.65;69.60;100653.16;5042902;28;20474;-56
2022/07/10 03:46:03;;;;;;;5.13;1.33;;;;;;;16.64;69.36;100646.19;5041809;28;20545;-55
2022/07/10 03:48:42;;;;;;;3.60;0.88;;;;;;;16.67;69.44;100646.13;5041097;28;20059;-56
2022/07/10 03:51:13;;;;;;;3.25;1.10;;;;;;;16.68;69.33;100640.00;5032779;28;20072;-56
2022/07/10 03:53:50;;;;;;;6.35;1.10;;;;;;;16.66;69.46;100639.19;5041794;28;20139;-54
2022/07/10 03:59:01;;;;;;;3.45;1.00;;;;;;;16.75;69.19;100644.09;5041245;28;20060;-57
2022/07/10 04:01:30;;;;;;;7.78;1.17;;;;;;;16.87;69.16;100648.03;5040269;28;20073;-56
2022/07/10 04:04:12;;;;;;;3.60;0.80;;;;;;;17.00;69.07;100634.44;5043937;28;20050;-57
2022/07/10 04:06:42;;;;;;;5.40;1.15;;;;;;;17.10;68.94;100634.09;5032423;28;20049;-57
2022/07/10 04:09:10;;;;;;;2.65;0.90;;;;;;;17.24;68.34;100644.97;5032645;28;20076;-57
2022/07/10 04:11:41;;;;;;;5.55;0.98;;;;;;;17.43;68.11;100638.09;5032147;28;20455;-56
2022/07/10 04:14:11;;;;;;;6.25;1.10;;;;;;;17.65;67.63;100643.38;5032207;28;20479;-55
2022/07/10 04:16:37;;;;;;;2.80;1.10;;;;;;;17.88;67.14;100634.66;5031778;28;20064;-57
2022/07/10 04:19:21;;;;;;;2.25;0.75;;;;;;;18.15;66.57;100638.75;5031876;28;20042;-57
2022/07/10 04:21:51;;;;;;;4.88;0.70;;;;;;;18.39;66.09;100636.06;5042019;28;20042;-57
2022/07/10 04:24:22;;;;;;;3.90;0.93;;;;;;;18.63;65.46;100640.28;5041214;28;20049;-57
2022/07/10 04:26:51;;;;;;;4.88;0.85;;;;;;;18.86;64.66;100637.53;5041815;28;20048;-57
2022/07/10 04:29:20;;;;;;;3.45;0.88;;;;;;;19.03;64.03;100633.31;5043203;28;20051;-57
2022/07/10 04:31:49;;;;;;;2.33;1.05;;;;;;;19.15;63.69;100632.75;5041838;28;20076;-58
2022/07/10 04:34:28;;;;;;;2.63;0.80;;;;;;;19.33;62.96;100631.94;5040505;28;20057;-57
2022/07/10 04:36:56;;;;;;;3.15;0.80;;;;;;;19.50;62.60;100634.63;5040474;28;20383;-57
2022/07/10 04:39:22;;;;;;;2.38;0.90;;;;;;;19.70;62.08;100632.84;5046899;28;20049;-58
2022/07/10 04:41:50;;;;;;;3.15;0.80;;;;;;;19.90;61.59;100622.25;5041372;28;20060;-57
2022/07/10 04:44:19;;;;;;;4.57;0.93;;;;;;;20.04;61.20;100629.47;5042972;28;20052;-56
2022/07/10 04:46:46;;;;;;;2.85;0.70;;;;;;;20.09;60.94;100620.41;5041956;28;20056;-56
2022/07/10 04:49:16;;;;;;;2.90;0.60;;;;;;;20.09;60.74;100612.50;5041207;28;20045;-57
2022/07/10 04:51:46;;;;;;;3.85;0.93;;;;;;;20.04;60.62;100614.53;5041762;28;20549;-56
2022/07/10 04:56:56;;;;;;;3.53;1.00;;;;;;;19.84;61.34;100617.28;5042820;28;20041;-57
2022/07/10 04:59:26;;;;;;;3.35;1.00;;;;;;;19.75;61.72;100617.69;5042988;28;20071;-58
2022/07/10 05:01:56;;;;;;;3.20;0.70;;;;;;;19.66;61.99;100626.03;5044200;28;20385;-55
2022/07/10 05:04:25;;;;;;;3.30;0.77;;;;;;;19.58;62.04;100628.19;5046778;28;20393;-56
2022/07/10 05:06:54;;;;;;;1.98;0.70;;;;;;;19.47;62.19;100624.25;5046092;28;20386;-57
2022/07/10 05:09:22;;;;;;;3.25;0.88;;;;;;;19.39;62.37;100621.13;5044860;28;20061;-57
2022/07/10 05:11:52;;;;;;;2.00;0.60;;;;;;;19.27;62.42;100621.69;5044245;28;20533;-55
2022/07/10 05:14:20;;;;;;;1.52;0.75;;;;;;;19.18;62.70;100624.72;5035795;28;20045;-55
2022/07/10 05:16:47;;;;;;;3.08;0.65;;;;;;;19.15;62.88;100622.22;5035553;28;20051;-58
2022/07/10 05:19:14;;;;;;;1.40;0.57;;;;;;;19.16;62.88;100621.31;5035130;28;20382;-55
2022/07/10 05:21:41;;;;;;;2.28;0.75;;;;;;;19.17;63.06;100623.88;5035316;28;20168;-56
2022/07/10 05:24:21;;;;;;;3.72;0.77;;;;;;;19.21;62.82;100617.56;5034125;28;20347;-55
2022/07/10 05:26:51;;;;;;;1.25;0.70;;;;;;;19.32;62.67;100622.34;5035460;28;20049;-57
2022/07/10 05:29:21;;;;;;;2.67;0.70;;;;;;;19.39;62.48;100615.03;5038338;28;20041;-57
2022/07/10 05:31:50;;;;;;;2.58;0.95;;;;;;;19.44;62.19;100613.88;5045461;28;20038;-54
2022/07/10 05:34:18;;;;;;;5.20;0.93;;;;;;;19.52;62.04;100621.41;5043553;28;20114;-57
2022/07/10 05:36:48;;;;;;;2.58;1.05;;;;;;;19.53;61.79;100616.09;5044576;28;20044;-56
2022/07/10 05:39:17;;;;;;;2.85;0.63;;;;;;;19.51;61.85;100624.97;5049397;28;20098;-55
2022/07/10 05:41:54;;;;;;;2.15;0.55;;;;;;;19.49;61.86;100618.91;5044619;28;20048;-55
2022/07/10 05:44:23;;;;;;;2.22;1.08;;;;;;;19.47;61.79;100626.03;5044326;28;20065;-56
2022/07/10 05:46:50;;;;;;;2.88;0.85;;;;;;;19.45;61.86;100626.09;5043933;28;20131;-56
2022/07/10 05:49:18;;;;;;;2.38;0.45;;;;;;;19.46;61.89;100627.81;5037429;28;20037;-57
2022/07/10 05:51:46;;;;;;;1.73;0.63;;;;;;;19.48;61.93;100635.63;5044789;28;20053;-57
2022/07/10 05:54:13;;;;;;;2.35;0.57;;;;;;;19.46;61.96;100635.69;5043702;28;20072;-56
2022/07/10 05:56:44;;;;;;;2.80;0.55;;;;;;;19.45;61.96;100633.97;5045044;28;20068;-57
2022/07/10 05:59:12;;;;;;;3.33;0.80;;;;;;;19.45;61.78;100631.34;5045365;28;20095;-57
2022/07/10 06:01:41;;;;;;;3.65;0.80;;;;;;;19.42;61.88;100634.13;5043967;28;20053;-57
2022/07/10 06:06:49;;;;;;;1.02;0.47;;;;;;;19.40;62.00;100641.22;5034281;28;20049;-56
2022/07/10 06:09:19;;;;;;;1.80;0.50;;;;;;;19.36;62.33;100644.94;5033969;28;20490;-56
2022/07/10 06:11:56;;;;;;;2.90;0.77;;;;;;;19.31;62.53;100644.28;5033183;28;20139;-55
2022/07/10 06:14:32;;;;;;;1.85;0.55;;;;;;;19.29;62.75;100651.38;5034042;28;20623;-57
2022/07/10 06:16:59;;;;;;;2.75;0.52;;;;;;;19.26;62.90;100646.28;5034138;28;20049;-56
2022/07/10 06:19:29;;;;;;;0.57;0.52;;;;;;;19.26;62.81;100646.28;5032861;28;20041;-56
2022/07/10 06:24:45;;;;;;;;;;;;;;;19.18;63.27;100658.88;5044069;28;20489;-56
2022/07/10 06:27:24;;;;;;;0.57;0.30;;;;;;;19.19;62.87;100655.34;5043272;28;19939;-56
2022/07/10 06:29:55;;;;;;;2.03;0.68;;;;;;;19.21;63.10;100658.75;5043109;28;20057;-56
2022/07/10 06:32:25;;;;;;;2.10;0.70;;;;;;;19.23;63.33;100654.25;5044211;28;20045;-57
2022/07/10 06:34:56;;;;;;;1.67;0.45;;;;;;;19.26;63.20;100651.53;5044542;28;20072;-57
2022/07/10 06:37:23;;;;;;;2.63;0.77;;;;;;;19.28;63.00;100654.94;5044768;28;20056;-57
2022/07/10 06:39:51;;;;;;;2.78;0.63;;;;;;;19.34;62.96;100644.16;5046091;28;20355;-57
2022/07/10 06:42:23;;;;;;;1.88;0.52;;;;;;;19.37;62.93;100649.25;5031952;28;20052;-57
2022/07/10 06:44:50;;;;;;;1.42;0.63;;;;;;;19.38;63.03;100656.22;5044493;28;20053;-57
2022/07/10 06:50:06;;;;;;;2.72;0.70;;;;;;;19.35;62.85;100645.84;5043313;28;20488;-57
2022/07/10 06:52:37;;;;;;;2.75;0.82;;;;;;;19.38;62.73;100642.22;5041793;28;20098;-57
2022/07/10 06:55:05;;;;;;;1.63;0.50;;;;;;;19.48;62.58;100641.72;5043247;28;20049;-57
2022/07/10 06:57:50;;;;;;;2.38;0.80;;;;;;;19.71;62.26;100647.69;5044229;28;20041;-56
2022/07/10 07:00:19;;;;;;;2.88;0.80;;;;;;;19.85;62.13;100645.28;5042391;28;20053;-54
2022/07/10 07:02:46;;;;;;;1.70;0.65;;;;;;;20.10;61.48;100651.06;5042680;28;20365;-57
2022/07/10 07:05:14;;;;;;;2.30;0.60;;;;;;;20.37;60.64;100645.38;5043389;28;20061;-57
2022/07/10 07:07:51;;;;;;;2.00;0.70;;;;;;;20.64;59.93;100646.63;5043383;28;20041;-57
2022/07/10 07:10:22;;;;;;;3.95;0.80;;;;;;;21.03;59.08;100648.13;5042058;28;20057;-55
2022/07/10 07:12:51;;;;;;;2.72;0.60;;;;;;;21.35;58.12;100639.41;5042184;28;20450;-57
2022/07/10 07:15:23;;;;;;;1.88;0.50;;;;;;;21.70;57.32;100636.59;5042445;28;20053;-57
2022/07/10 07:23:26;;;;;;;2.05;0.65;;;;;;;22.83;54.16;100632.69;5042000;28;20095;-57
2022/07/10 07:25:55;;;;;;;2.65;0.80;;;;;;;22.96;53.59;100631.88;5041565;28;20132;-57
2022/07/10 07:28:27;;;;;;;1.90;0.55;;;;;;;23.07;53.18;100625.06;5042962;28;20358;-57
2022/07/10 07:30:59;;;;;;;2.10;0.75;;;;;;;23.07;52.90;100620.63;5043451;28;20053;-58
2022/07/10 07:33:30;;;;;;;4.22;0.80;;;;;;;23.06;52.98;100621.56;5042889;28;20060;-57
2022/07/10 07:36:00;;;;;;;1.08;0.50;;;;;;;23.07;53.14;100620.63;5040934;28;20068;-57
2022/07/10 07:38:29;;;;;;;3.20;0.70;;;;;;;23.06;52.93;100629.50;5046471;28;20053;-57
2022/07/10 07:40:56;;;;;;;3.80;0.73;;;;;;;23.10;52.76;100625.72;5041477;28;20053;-57
2022/07/10 07:43:33;;;;;;;2.08;0.70;;;;;;;23.25;52.52;100634.50;5041839;28;20061;-57
2022/07/10 07:46:03;;;;;;;2.05;0.80;;;;;;;23.46;52.16;100629.66;5032802;28;20057;-58
2022/07/10 07:48:31;;;;;;;2.65;0.60;;;;;;;23.62;51.76;100630.41;5032763;28;20057;-58
2022/07/10 07:50:59;;;;;;;2.67;0.57;;;;;;;23.82;51.38;100631.75;5038991;28;20056;-57
2022/07/10 07:53:29;;;;;;;4.15;1.10;;;;;;;23.91;51.23;100629.38;5040996;28;20067;-58
2022/07/10 07:56:00;;;;;;;3.53;0.70;;;;;;;24.01;50.73;100621.69;5043079;28;20539;-58
2022/07/10 07:58:37;;;;;;;2.90;0.70;;;;;;;24.14;50.64;100629.66;5043073;28;20045;-58
2022/07/10 08:01:04;;;;;;;3.08;0.65;;;;;;;24.21;50.51;100630.97;5042037;28;20463;-56
2022/07/10 08:06:12;;;;;;;2.40;0.60;;;;;;;24.54;50.10;100620.78;5041489;28;20113;-56
2022/07/10 08:08:40;;;;;;;3.22;0.70;;;;;;;24.60;49.84;100616.03;5032625;28;20052;-57
2022/07/10 08:11:07;;;;;;;2.58;0.85;;;;;;;24.64;50.00;100625.44;5032094;28;20060;-56
2022/07/10 08:13:35;;;;;;;1.98;0.73;;;;;;;24.51;49.87;100631.59;5032027;28;20064;-57
2022/07/10 08:16:04;;;;;;;4.60;0.70;;;;;;;24.33;49.88;100640.75;5032542;28;20049;-56
2022/07/10 08:18:34;;;;;;;3.38;0.73;;;;;;;24.03;50.34;100640.13;5032261;28;20421;-56
2022/07/10 08:21:05;;;;;;;3.13;0.77;;;;;;;23.73;50.72;100650.88;5030883;28;20064;-57
2022/07/10 08:23:35;;;;;;;2.05;0.55;;;;;;;23.51;51.62;100643.44;5043247;28;20064;-58
2022/07/10 08:26:02;;;;;;;3.45;0.50;;;;;;;23.29;52.71;100641.28;5032270;28;20045;-58
2022/07/10 08:28:30;;;;;;;1.52;0.65;;;;;;;22.91;56.32;100646.31;5032480;28;20045;-58
2022/07/10 08:31:03;;;;;;;2.88;0.55;;;;;;;22.66;58.16;100638.97;5035348;28;20045;-58
2022/07/10 08:33:31;;;;;;;5.50;0.90;;;;;;;22.49;58.25;100636.50;5041345;28;20469;-58
2022/07/10 08:36:02;;;;;;;2.28;0.73;;;;;;;22.35;58.20;100632.00;5044466;28;20053;-57
2022/07/10 08:38:30;;;;;;;3.10;0.77;;;;;;;22.18;59.05;100634.78;5049519;28;20053;-58
2022/07/10 08:40:58;;;;;;;1.70;0.60;;;;;;;22.02;59.39;100635.63;5044621;28;20049;-58
2022/07/10 08:43:34;;;;;;;1.48;0.60;;;;;;;21.92;59.84;100636.25;5046881;28;20053;-58
2022/07/10 08:46:17;;;;;;;2.85;0.82;;;;;;;21.84;60.44;100641.09;5046024;28;20111;-58
2022/07/10 08:48:49;;;;;;;2.80;0.90;;;;;;;21.78;60.54;100642.28;5035931;28;20053;-58
2022/07/10 08:51:26;;;;;;;3.42;0.70;;;;;;;21.76;60.51;100644.16;5047038;28;20124;-57
2022/07/10 08:53:56;;;;;;;2.40;0.80;;;;;;;21.75;60.57;100642.44;5047011;28;20122;-57
2022/07/10 08:56:25;;;;;;;1.23;0.60;;;;;;;21.77;60.89;100648.50;5045804;28;20045;-58
2022/07/10 08:59:02;;;;;;;2.95;0.65;;;;;;;21.78;60.98;100647.56;5044919;28;20057;-57
2022/07/10 09:01:38;;;;;;;2.65;0.75;;;;;;;21.81;60.53;100642.09;5044570;28;20479;-58
2022/07/10 09:04:08;;;;;;;6.57;1.08;;;;;;;21.85;59.93;100638.38;5041496;28;20389;-58
2022/07/10 09:06:37;;;;;;;4.80;0.68;;;;;;;21.92;60.03;100636.25;5044775;28;20294;-57
2022/07/10 09:09:16;;;;;;;6.38;0.70;;;;;;;21.96;59.66;100635.97;5045022;28;20127;-58
2022/07/10 09:11:43;;;;;;;3.78;1.05;;;;;;;22.11;59.51;100634.28;5044943;28;20044;-56
2022/07/10 09:14:12;;;;;;;4.25;1.10;;;;;;;22.27;59.37;100628.94;5044426;28;20386;-56
2022/07/10 09:16:55;;;;;;;2.60;0.63;;;;;;;22.42;59.30;100633.34;5044713;28;20051;-56
2022/07/10 09:19:32;;;;;;;5.15;0.80;;;;;;;22.57;58.56;100628.94;5035407;28;20084;-58
2022/07/10 09:22:07;;;;;;;3.30;0.52;;;;;;;22.82;58.63;100631.00;5052617;28;20071;-56
2022/07/10 09:24:44;;;;;;;3.03;0.60;;;;;;;23.08;58.06;100617.03;5051830;28;20049;-54
2022/07/10 09:27:15;;;;;;;1.92;0.90;;;;;;;23.39;56.74;100620.41;5055491;28;20049;-57
2022/07/10 09:29:57;;;;;;;2.05;0.80;;;;;;;23.68;56.10;100616.78;5056047;28;20065;-56
2022/07/10 09:32:32;;;;;;;2.63;0.70;;;;;;;24.06;54.97;100610.78;5055947;28;20458;-56
2022/07/10 09:37:50;;;;;;;1.20;0.57;;;;;;;24.71;52.09;100627.56;5058364;28;20052;-56
2022/07/10 09:40:19;;;;;;;2.38;0.70;;;;;;;24.80;50.44;100621.63;5075356;28;20055;-54
2022/07/10 09:42:56;;;;;;;3.40;0.82;;;;;;;24.85;49.27;100631.91;5051271;28;20069;-56
2022/07/10 09:45:25;;;;;;;1.92;0.47;;;;;;;24.89;48.88;100637.84;5034944;28;20147;-58
2022/07/10 09:48:03;;;;;;;3.05;0.70;;;;;;;24.83;47.98;100623.22;5035311;28;20057;-58
2022/07/10 09:50:36;;;;;;;1.75;0.50;;;;;;;24.93;47.52;100629.56;5035604;28;20049;-58
2022/07/10 09:53:09;;;;;;;2.58;0.80;;;;;;;24.99;47.61;100626.56;5035030;28;20493;-58
2022/07/10 09:55:38;;;;;;;3.55;0.65;;;;;;;25.12;47.31;100632.69;5035819;28;20115;-58
2022/07/10 09:58:08;;;;;;;3.50;0.75;;;;;;;25.21;47.19;100623.22;5035785;28;20084;-58
2022/07/10 10:00:38;;;;;;;3.47;0.77;;;;;;;25.28;46.73;100632.44;5035878;28;20134;-57
2022/07/10 10:03:21;;;;;;;2.55;0.88;;;;;;;25.23;46.54;100631.94;5037653;28;20115;-58
2022/07/10 10:05:57;;;;;;;1.50;0.60;;;;;;;25.20;47.30;100636.59;5056560;28;20064;-58
2022/07/10 10:08:30;;;;;;;2.42;0.73;;;;;;;25.13;46.96;100645.00;5056354;28;20080;-58
2022/07/10 10:11:00;;;;;;;1.88;0.63;;;;;;;25.00;47.12;100656.56;5056580;28;20085;-58
2022/07/10 10:13:36;;;;;;;2.75;0.60;;;;;;;24.71;47.33;100671.78;5055316;28;20053;-58
2022/07/10 10:16:05;;;;;;;2.75;0.57;;;;;;;24.40;48.01;100672.97;5056460;28;20187;-58
2022/07/10 10:20:36;;;;;;;4.22;0.90;;;;;;;24.08;48.59;100661.84;5055865;28;20102;-58
2022/07/10 10:21:28;;;;;;;4.20;0.90;;;;;;;23.75;50.34;100686.91;5036666;28;20533;-58
2022/07/10 10:23:58;;;;;;;2.65;0.60;;;;;;;23.50;51.53;100686.72;5034150;28;20521;-58
2022/07/10 10:26:25;;;;;;;4.82;0.70;;;;;;;23.23;52.12;100671.59;5035777;28;20065;-58
2022/07/10 10:29:02;;;;;;;3.95;0.63;;;;;;;23.01;52.81;100668.59;5036618;28;20480;-58
2022/07/10 10:31:32;;;;;;;1.17;0.47;;;;;;;22.77;53.50;100664.75;5039965;28;20354;-57
2022/07/10 10:34:00;;;;;;;1.38;0.43;;;;;;;22.61;53.93;100668.31;5043697;28;20044;-58
2022/07/10 10:36:49;;;;;;;2.90;0.75;;;;;;;22.47;54.50;100670.06;5044641;28;20481;-55
2022/07/10 10:39:26;;;;;;;2.22;0.60;;;;;;;22.32;55.08;100666.50;5045676;28;20504;-58
2022/07/10 10:41:57;;;;;;;4.20;0.82;;;;;;;22.20;55.23;100673.34;5035542;28;20037;-58
2022/07/10 10:44:31;;;;;;;2.72;0.80;;;;;;;22.14;55.42;100671.06;5042990;28;20458;-58
2022/07/10 10:47:27;;;;;;;2.25;0.70;;;;;;;22.06;55.58;100673.28;5036679;28;20049;-58
2022/07/10 10:50:08;;;;;;;4.60;1.13;;;;;;;21.98;55.67;100676.34;5033526;28;20056;-58
2022/07/10 10:52:35;;;;;;;3.63;0.95;;;;;;;21.93;55.71;100677.53;5039346;28;20154;-58
2022/07/10 10:55:10;;;;;;;4.25;0.80;;;;;;;21.84;56.03;100670.97;5043922;28;20053;-57
2022/07/10 10:57:45;;;;;;;3.22;1.30;;;;;;;21.74;56.24;100677.69;5032893;28;20845;-58
2022/07/10 11:00:24;;;;;;;4.85;0.80;;;;;;;21.65;56.62;100667.66;5033097;28;20466;-57
2022/07/10 11:03:19;;;;;;;4.35;0.90;;;;;;;21.62;56.81;100657.28;5033248;28;20466;-58
2022/07/10 11:05:53;;;;;;;3.93;0.90;;;;;;;21.62;56.79;100662.53;5032930;28;20497;-58
2022/07/10 11:08:43;;;;;;;2.83;0.90;;;;;;;21.61;57.04;100669.59;5033341;28;20049;-56
2022/07/10 11:11:39;;;;;;;1.58;0.60;;;;;;;21.65;57.34;100671.13;5033205;28;20052;-57
2022/07/10 11:14:12;;;;;;;3.00;0.80;;;;;;;21.67;56.89;100676.31;5043689;28;20049;-57
2022/07/10 11:16:49;;;;;;;2.55;0.95;;;;;;;21.69;56.81;100669.19;5034453;28;20129;-57
2022/07/10 11:19:24;;;;;;;4.05;0.82;;;;;;;21.71;56.90;100669.94;5033158;28;20062;-57
2022/07/10 11:22:20;;;;;;;4.38;1.10;;;;;;;21.76;57.11;100675.81;5041450;28;20045;-56
2022/07/10 11:25:05;;;;;;;4.45;1.00;;;;;;;21.90;57.34;100689.13;5043216;28;20057;-54
2022/07/10 11:28:04;;;;;;;3.10;0.80;;;;;;;22.03;56.84;100674.31;5041978;28;20045;-56
2022/07/10 11:30:46;;;;;;;5.13;0.90;;;;;;;22.06;56.46;100675.09;5035825;28;20060;-58
2022/07/10 11:33:18;;;;;;;3.13;0.90;;;;;;;22.02;56.59;100672.59;5041437;28;20064;-56
2022/07/10 11:35:59;;;;;;;4.32;1.02;;;;;;;22.01;56.78;100692.00;5041213;28;20084;-56
2022/07/10 11:38:38;;;;;;;4.55;0.85;;;;;;;22.02;56.76;100685.78;5053004;28;20136;-58
2022/07/10 11:41:16;;;;;;;3.85;1.00;;;;;;;22.03;56.46;100690.16;5038244;28;20084;-55
2022/07/10 11:43:52;;;;;;;2.00;0.88;;;;;;;22.00;56.73;100690.28;5046306;28;20130;-56
2022/07/10 11:46:22;;;;;;;3.05;1.00;;;;;;;21.98;57.02;100686.03;5039999;28;20053;-58
2022/07/10 11:48:54;;;;;;;4.65;1.08;;;;;;;22.00;57.25;100685.00;5033333;28;20057;-56
2022/07/10 11:51:28;;;;;;;2.47;0.80;;;;;;;22.02;56.69;100683.13;5042684;28;20052;-57
2022/07/10 11:54:15;;;;;;;4.35;0.98;;;;;;;21.99;54.70;100680.69;5033237;28;20577;-57
2022/07/10 11:56:51;;;;;;;2.45;0.80;;;;;;;21.98;54.91;100675.47;5033598;28;20049;-56
2022/07/10 11:59:19;;;;;;;2.70;0.75;;;;;;;21.99;54.30;100680.69;5042417;28;20393;-57
2022/07/10 12:01:55;;;;;;;2.35;0.40;;;;;;;22.07;53.98;100684.69;5035506;28;20042;-58
2022/07/10 12:04:32;;;;;;;3.60;0.70;;;;;;;22.18;53.29;100682.28;5044277;28;20052;-58
2022/07/10 12:07:01;;;;;;;2.35;0.68;;;;;;;22.26;52.62;100685.34;5033528;28;20136;-57
2022/07/10 12:09:32;;;;;;;1.80;0.60;;;;;;;22.37;52.11;100688.22;5032815;28;20057;-57
2022/07/10 12:12:02;;;;;;;2.47;0.60;;;;;;;22.43;51.80;100693.16;5033683;28;20042;-58
2022/07/10 12:14:29;;;;;;;1.48;0.40;;;;;;;22.46;51.60;100702.69;5032936;28;20061;-58
2022/07/10 12:17:08;;;;;;;3.00;0.60;;;;;;;22.41;52.41;100712.69;5032700;28;20059;-58